createdAt,value
2018-06-11T00:01:00.787Z,9.43
2018-06-11T00:03:32.366Z,9.07
2018-06-11T00:06:04.255Z,9.77
2018-06-11T00:08:35.909Z,9.43
2018-06-11T00:11:07.506Z,9.47
2018-06-11T00:13:39.130Z,9.17
2018-06-11T00:16:10.769Z,9.67
2018-06-11T00:18:42.310Z,9.10
2018-06-11T00:21:14.100Z,8.87
2018-06-11T00:23:45.797Z,9.27
2018-06-11T00:26:17.292Z,9.47
2018-06-11T00:28:48.729Z,9.43
2018-06-11T00:31:20.691Z,9.57
2018-06-11T00:33:53.845Z,9.97
2018-06-11T00:36:25.264Z,9.60
2018-06-11T00:38:56.812Z,10.27
2018-06-11T00:41:28.678Z,9.33
2018-06-11T00:44:00.121Z,10.20
2018-06-11T00:46:31.830Z,10.07
2018-06-11T00:49:03.527Z,10.57
2018-06-11T00:51:35.191Z,10.10
2018-06-11T00:54:07.347Z,10.50
2018-06-11T00:56:39.169Z,10.67
2018-06-11T00:59:10.708Z,10.67
2018-06-11T01:01:43.687Z,9.97
2018-06-11T01:04:15.165Z,10.30
2018-06-11T01:06:46.634Z,9.13
2018-06-11T01:09:19.036Z,10.67
2018-06-11T01:11:50.577Z,10.17
2018-06-11T01:14:22.006Z,9.73
2018-06-11T01:16:55.349Z,9.77
2018-06-11T01:19:27.267Z,9.73
2018-06-11T01:21:58.850Z,10.27
2018-06-11T01:24:30.268Z,10.53
2018-06-11T01:27:01.806Z,9.60
2018-06-11T01:29:33.357Z,10.07
2018-06-11T01:32:05.317Z,9.87
2018-06-11T01:34:36.830Z,10.00
2018-06-11T01:37:08.749Z,10.43
2018-06-11T01:39:40.382Z,10.60
2018-06-11T01:42:12.233Z,9.93
2018-06-11T01:44:44.679Z,10.57
2018-06-11T01:47:16.420Z,11.10
2018-06-11T01:49:47.896Z,10.03
2018-06-11T01:52:19.017Z,9.70
2018-06-11T01:54:50.001Z,11.13
2018-06-11T01:57:21.268Z,10.30
2018-06-11T01:59:52.895Z,10.73
2018-06-11T02:02:24.470Z,10.77
2018-06-11T02:04:56.092Z,10.07
2018-06-11T02:07:27.982Z,11.60
2018-06-11T02:09:59.410Z,9.43
2018-06-11T02:12:30.877Z,10.63
2018-06-11T02:15:02.482Z,10.10
2018-06-11T02:17:34.025Z,9.80
2018-06-11T02:20:05.632Z,9.87
2018-06-11T02:22:36.896Z,10.97
2018-06-11T02:25:08.449Z,9.80
2018-06-11T02:27:39.713Z,10.20
2018-06-11T02:30:11.526Z,9.77
2018-06-11T02:32:43.111Z,9.10
2018-06-11T02:35:14.604Z,10.13
2018-06-11T02:37:46.346Z,9.57
2018-06-11T02:40:20.541Z,9.63
2018-06-11T02:42:52.082Z,9.57
2018-06-11T02:45:23.639Z,9.23
2018-06-11T02:47:55.363Z,8.90
2018-06-11T02:50:27.271Z,9.27
2018-06-11T02:53:04.225Z,8.87
2018-06-11T02:58:23.980Z,8.90
2018-06-11T03:00:55.501Z,8.93
2018-06-11T03:03:26.953Z,8.77
2018-06-11T03:05:58.549Z,8.90
2018-06-11T03:08:30.500Z,9.53
2018-06-11T03:11:01.917Z,8.43
2018-06-11T03:13:33.423Z,9.07
2018-06-11T03:16:05.473Z,8.33
2018-06-11T03:18:37.265Z,8.77
2018-06-11T03:21:08.815Z,8.87
2018-06-11T03:23:40.337Z,9.17
2018-06-11T03:26:12.130Z,9.43
2018-06-11T03:28:43.606Z,8.87
2018-06-11T03:31:15.056Z,8.73
2018-06-11T03:33:46.798Z,9.20
2018-06-11T03:36:18.265Z,9.50
2018-06-11T03:38:49.741Z,8.43
2018-06-11T03:41:21.205Z,8.87
2018-06-11T03:43:52.334Z,8.53
2018-06-11T03:46:23.642Z,8.70
2018-06-11T03:48:55.156Z,8.43
2018-06-11T03:51:26.327Z,8.73
2018-06-11T03:53:57.610Z,7.97
2018-06-11T03:56:29.576Z,8.30
2018-06-11T03:59:01.061Z,7.57
2018-06-11T04:01:32.547Z,7.43
2018-06-11T04:04:04.057Z,7.70
2018-06-11T04:06:35.630Z,7.27
2018-06-11T04:09:09.051Z,7.50
2018-06-11T04:11:40.500Z,7.30
2018-06-11T04:14:12.362Z,7.67
2018-06-11T04:16:43.793Z,7.73
2018-06-11T04:19:15.230Z,8.83
2018-06-11T04:21:47.476Z,7.87
2018-06-11T04:24:18.944Z,7.53
2018-06-11T04:26:50.480Z,8.83
2018-06-11T04:29:22.264Z,9.47
2018-06-11T04:31:53.813Z,9.33
2018-06-11T04:34:25.431Z,9.23
2018-06-11T04:36:57.631Z,9.13
2018-06-11T04:39:29.195Z,10.07
2018-06-11T04:42:00.838Z,9.30
2018-06-11T04:44:32.310Z,9.73
2018-06-11T04:47:03.827Z,8.70
2018-06-11T04:49:35.313Z,8.97
2018-06-11T04:52:07.078Z,8.80
2018-06-11T04:54:38.624Z,8.97
2018-06-11T04:57:10.106Z,9.83
2018-06-11T04:59:41.764Z,8.97
2018-06-11T05:02:13.286Z,9.17
2018-06-11T05:04:44.767Z,8.87
2018-06-11T05:07:16.284Z,8.73
2018-06-11T05:09:48.195Z,7.93
2018-06-11T05:12:19.422Z,8.67
2018-06-11T05:14:51.300Z,7.47
2018-06-11T05:17:22.642Z,8.37
2018-06-11T05:19:54.099Z,7.43
2018-06-11T05:22:25.766Z,8.33
2018-06-11T05:24:57.309Z,7.77
2018-06-11T05:27:29.259Z,7.77
2018-06-11T05:30:00.789Z,7.90
2018-06-11T05:32:31.918Z,7.60
2018-06-11T05:35:03.391Z,8.10
2018-06-11T05:37:34.608Z,7.53
2018-06-11T05:40:06.502Z,8.03
2018-06-11T05:42:37.908Z,7.63
2018-06-11T05:45:09.715Z,8.43
2018-06-11T05:47:41.303Z,8.63
2018-06-11T05:50:12.791Z,7.47
2018-06-11T05:52:44.397Z,8.20
2018-06-11T05:55:16.050Z,7.83
2018-06-11T05:57:47.568Z,7.77
2018-06-11T06:00:19.936Z,8.20
2018-06-11T06:02:51.413Z,8.43
2018-06-11T06:05:22.907Z,8.97
2018-06-11T06:07:54.800Z,9.07
2018-06-11T06:10:26.651Z,8.73
2018-06-11T06:12:58.372Z,8.83
2018-06-11T06:15:30.434Z,8.83
2018-06-11T06:18:01.910Z,7.83
2018-06-11T06:20:33.581Z,8.60
2018-06-11T06:23:05.243Z,8.67
2018-06-11T06:25:36.944Z,8.67
2018-06-11T06:28:08.786Z,7.80
2018-06-11T06:30:40.286Z,8.93
2018-06-11T06:33:12.006Z,8.30
2018-06-11T06:35:44.565Z,8.13
2018-06-11T06:38:15.974Z,9.00
2018-06-11T06:40:48.143Z,8.70
2018-06-11T06:43:20.093Z,9.10
2018-06-11T06:45:52.481Z,8.63
2018-06-11T06:48:24.065Z,8.87
2018-06-11T06:50:55.662Z,9.63
2018-06-11T06:53:27.361Z,9.37
2018-06-11T06:55:59.086Z,9.40
2018-06-11T06:58:30.765Z,10.07
2018-06-11T07:01:02.333Z,9.07
2018-06-11T07:03:33.885Z,11.03
2018-06-11T07:06:05.817Z,8.87
2018-06-11T07:08:37.439Z,11.20
2018-06-11T07:11:09.413Z,10.70
2018-06-11T07:13:40.914Z,10.97
2018-06-11T07:16:13.746Z,10.93
2018-06-11T07:18:45.730Z,11.53
2018-06-11T07:21:16.995Z,10.87
2018-06-11T07:23:49.118Z,9.70
2018-06-11T07:26:20.861Z,10.00
2018-06-11T07:28:52.539Z,9.83
2018-06-11T07:31:24.139Z,10.37
2018-06-11T07:33:55.998Z,11.07
2018-06-11T07:36:27.503Z,10.17
2018-06-11T07:38:58.958Z,11.17
2018-06-11T07:41:30.299Z,10.53
2018-06-11T07:44:01.803Z,11.17
2018-06-11T07:46:34.040Z,10.37
2018-06-11T07:49:06.625Z,10.87
2018-06-11T07:51:38.114Z,10.47
2018-06-11T07:54:10.075Z,10.33
2018-06-11T07:56:41.829Z,10.37
2018-06-11T07:59:13.648Z,10.87
2018-06-11T08:01:45.538Z,10.47
2018-06-11T08:04:23.665Z,11.03
2018-06-11T08:06:56.364Z,10.50
2018-06-11T08:09:28.078Z,10.07
2018-06-11T08:11:59.773Z,10.20
2018-06-11T08:14:31.598Z,10.37
2018-06-11T08:17:03.350Z,10.40
2018-06-11T08:19:35.340Z,10.23
2018-06-11T08:22:07.269Z,10.67
2018-06-11T08:24:39.503Z,10.10
2018-06-11T08:27:11.552Z,10.33
2018-06-11T08:29:43.885Z,10.07
2018-06-11T08:32:15.407Z,10.27
2018-06-11T08:34:47.217Z,10.13
2018-06-11T08:37:18.819Z,10.27
2018-06-11T08:39:50.954Z,9.70
2018-06-11T08:42:22.515Z,10.40
2018-06-11T08:44:54.016Z,9.93
2018-06-11T08:47:25.549Z,9.47
2018-06-11T08:49:57.537Z,9.00
2018-06-11T08:52:29.108Z,9.57
2018-06-11T08:55:01.215Z,9.73
2018-06-11T08:57:32.854Z,10.03
2018-06-11T09:00:06.429Z,9.50
2018-06-11T09:02:38.625Z,10.00
2018-06-11T09:05:10.869Z,10.17
2018-06-11T09:07:42.567Z,10.53
2018-06-11T09:10:15.336Z,10.93
2018-06-11T09:12:46.698Z,11.20
2018-06-11T09:15:18.187Z,10.73
2018-06-11T09:17:49.774Z,11.80
2018-06-11T09:20:22.913Z,10.60
2018-06-11T09:22:54.415Z,12.30
2018-06-11T09:25:26.348Z,11.27
2018-06-11T09:27:58.227Z,12.17
2018-06-11T09:30:30.543Z,11.87
2018-06-11T09:33:02.784Z,11.87
2018-06-11T09:35:34.521Z,11.43
2018-06-11T09:38:06.588Z,11.07
2018-06-11T09:40:44.865Z,10.87
2018-06-11T09:43:16.764Z,11.93
2018-06-11T09:45:48.297Z,11.30
2018-06-11T09:48:20.005Z,12.43
2018-06-11T09:50:51.502Z,11.30
2018-06-11T09:53:23.286Z,11.20
2018-06-11T09:55:54.902Z,10.33
2018-06-11T09:58:26.417Z,10.30
2018-06-11T10:00:58.036Z,10.77
2018-06-11T10:03:29.661Z,11.00
2018-06-11T10:06:01.249Z,10.97
2018-06-11T10:08:33.383Z,10.87
2018-06-11T10:11:05.713Z,10.33
2018-06-11T10:13:37.482Z,11.13
2018-06-11T10:16:09.450Z,11.10
2018-06-11T10:18:41.278Z,10.47
2018-06-11T10:21:13.080Z,11.30
2018-06-11T10:23:44.583Z,10.93
2018-06-11T10:26:16.820Z,13.83
2018-06-11T10:28:49.072Z,10.43
2018-06-11T10:31:21.724Z,12.05
2018-06-11T10:33:54.122Z,12.60
2018-06-11T10:36:26.368Z,11.18
2018-06-11T10:38:58.862Z,11.97
2018-06-11T10:41:31.026Z,12.73
2018-06-11T10:44:03.515Z,13.00
2018-06-11T10:46:35.982Z,12.50
2018-06-11T10:49:08.148Z,12.43
2018-06-11T10:51:40.317Z,11.57
2018-06-11T10:54:12.609Z,11.93
2018-06-11T10:56:45.092Z,11.50
2018-06-11T10:59:17.211Z,13.08
2018-06-11T11:01:49.465Z,11.70
2018-06-11T11:04:22.248Z,10.85
2018-06-11T11:06:54.477Z,11.57
2018-06-11T11:09:26.602Z,11.95
2018-06-11T11:11:59.046Z,11.63
2018-06-11T11:14:31.506Z,10.25
2018-06-11T11:17:03.992Z,10.48
2018-06-11T11:19:36.049Z,10.50
2018-06-11T11:22:08.136Z,10.38
2018-06-11T11:24:40.343Z,8.75
2018-06-11T11:27:12.700Z,9.53
2018-06-11T11:29:44.613Z,9.80
2018-06-11T11:32:16.545Z,7.95
2018-06-11T11:34:48.591Z,7.35
2018-06-11T11:37:20.544Z,7.53
2018-06-11T11:39:52.340Z,7.17
2018-06-11T11:42:24.444Z,7.10
2018-06-11T11:44:56.609Z,8.18
2018-06-11T11:47:29.062Z,8.00
2018-06-11T11:50:01.317Z,7.50
2018-06-11T11:52:33.531Z,7.33
2018-06-11T11:55:05.930Z,8.00
2018-06-11T11:57:38.130Z,6.95
2018-06-11T12:00:09.923Z,6.37
2018-06-11T12:02:42.158Z,6.72
2018-06-11T12:05:14.249Z,6.87
2018-06-11T12:07:46.630Z,6.95
2018-06-11T12:10:18.707Z,7.17
2018-06-11T12:12:50.711Z,7.42
2018-06-11T12:15:23.009Z,7.45
2018-06-11T12:17:55.193Z,6.55
2018-06-11T12:20:27.217Z,7.42
2018-06-11T12:22:59.271Z,6.60
2018-06-11T12:25:31.418Z,7.58
2018-06-11T12:28:03.715Z,8.00
2018-06-11T12:30:36.610Z,8.13
2018-06-11T12:33:09.674Z,7.78
2018-06-11T12:35:41.634Z,6.45
2018-06-11T12:38:13.733Z,5.50
2018-06-11T12:40:45.836Z,6.00
2018-06-11T12:43:18.193Z,6.12
2018-06-11T12:45:50.401Z,6.40
2018-06-11T12:48:23.160Z,6.60
2018-06-11T12:50:55.795Z,6.45
2018-06-11T12:53:28.251Z,6.78
2018-06-11T12:56:00.519Z,6.28
2018-06-11T12:58:33.386Z,6.28
2018-06-11T13:01:05.626Z,5.75
2018-06-11T13:03:39.736Z,6.00
2018-06-11T13:06:12.277Z,5.70
2018-06-11T13:08:44.711Z,5.50
2018-06-11T13:11:16.881Z,6.30
2018-06-11T13:13:49.045Z,4.87
2018-06-11T13:16:21.501Z,4.78
2018-06-11T13:18:53.526Z,4.83
2018-06-11T13:21:25.669Z,5.47
2018-06-11T13:23:57.974Z,5.67
2018-06-11T13:26:30.161Z,5.55
2018-06-11T13:29:02.317Z,5.25
2018-06-11T13:31:34.354Z,5.85
2018-06-11T13:34:06.667Z,6.00
2018-06-11T13:36:38.887Z,5.72
2018-06-11T13:39:11.150Z,5.10
2018-06-11T13:41:43.368Z,4.45
2018-06-11T13:44:15.713Z,5.45
2018-06-11T13:46:47.933Z,5.00
2018-06-11T13:49:20.209Z,5.33
2018-06-11T13:51:52.312Z,5.75
2018-06-11T13:54:24.406Z,5.42
2018-06-11T13:56:56.432Z,5.60
2018-06-11T13:59:28.809Z,6.50
2018-06-11T14:02:00.878Z,5.37
2018-06-11T14:04:33.078Z,5.10
2018-06-11T14:07:05.223Z,5.17
2018-06-11T14:09:37.237Z,5.30
2018-06-11T14:12:10.174Z,4.72
2018-06-11T14:14:43.259Z,4.15
2018-06-11T14:17:16.506Z,4.70
2018-06-11T14:19:49.104Z,3.77
2018-06-11T14:22:21.307Z,3.80
2018-06-11T14:24:53.378Z,3.50
2018-06-11T14:27:27.023Z,3.40
2018-06-11T14:29:59.283Z,3.12
2018-06-11T14:32:31.913Z,4.08
2018-06-11T14:35:04.033Z,4.05
2018-06-11T14:37:37.110Z,4.20
2018-06-11T14:40:09.477Z,4.10
2018-06-11T14:42:43.967Z,4.50
2018-06-11T14:45:17.805Z,4.95
2018-06-11T14:47:49.938Z,4.53
2018-06-11T14:50:22.099Z,4.15
2018-06-11T14:52:54.246Z,4.20
2018-06-11T14:55:26.379Z,4.20
2018-06-11T14:57:59.306Z,4.22
2018-06-11T15:00:31.700Z,5.05
2018-06-11T15:03:03.804Z,5.92
2018-06-11T15:05:36.465Z,5.90
2018-06-11T15:08:08.705Z,7.97
2018-06-11T15:10:41.836Z,9.55
2018-06-11T15:13:14.233Z,8.63
2018-06-11T15:15:47.501Z,7.00
2018-06-11T15:18:19.186Z,6.33
2018-06-11T15:20:51.094Z,5.07
2018-06-11T15:23:23.261Z,4.25
2018-06-11T15:25:54.958Z,4.40
2018-06-11T15:28:26.713Z,4.33
2018-06-11T15:30:58.209Z,4.30
2018-06-11T15:33:30.138Z,4.53
2018-06-11T15:36:02.378Z,4.63
2018-06-11T15:38:33.916Z,4.33
2018-06-11T15:41:06.113Z,4.70
2018-06-11T15:43:37.747Z,4.37
2018-06-11T15:46:09.338Z,4.70
2018-06-11T15:48:41.029Z,4.70
2018-06-11T15:51:13.850Z,4.40
2018-06-11T15:53:45.338Z,4.50
2018-06-11T15:56:16.479Z,4.50
2018-06-11T15:58:47.962Z,5.23
2018-06-11T16:01:19.734Z,5.10
2018-06-11T16:03:51.306Z,5.13
2018-06-11T16:06:23.454Z,4.30
2018-06-11T16:08:55.093Z,4.63
2018-06-11T16:11:26.900Z,4.50
2018-06-11T16:13:58.476Z,3.97
2018-06-11T16:16:30.129Z,4.23
2018-06-11T16:19:01.966Z,4.40
2018-06-11T16:21:33.554Z,4.20
2018-06-11T16:24:05.238Z,4.60
2018-06-11T16:26:37.150Z,4.13
2018-06-11T16:29:15.758Z,4.10
2018-06-11T16:31:47.574Z,4.13
2018-06-11T16:34:19.427Z,3.77
2018-06-11T16:36:51.181Z,3.47
2018-06-11T16:39:23.206Z,4.37
2018-06-11T16:41:55.008Z,4.70
2018-06-11T16:44:26.806Z,4.37
2018-06-11T16:46:58.720Z,4.60
2018-06-11T17:02:28.396Z,4.07
2018-06-11T17:04:59.998Z,4.50
2018-06-11T17:07:31.842Z,3.83
2018-06-11T17:10:03.715Z,4.77
2018-06-11T17:12:35.389Z,4.17
2018-06-11T17:15:06.585Z,4.20
2018-06-11T17:17:37.901Z,3.77
2018-06-11T17:20:09.571Z,3.63
2018-06-11T17:22:41.375Z,4.13
2018-06-11T17:25:12.651Z,4.27
2018-06-11T17:27:44.220Z,4.03
2018-06-11T17:30:15.981Z,4.20
2018-06-11T17:32:47.809Z,4.03
2018-06-11T17:35:19.867Z,4.70
2018-06-11T17:37:51.507Z,4.60
2018-06-11T17:40:23.629Z,4.37
2018-06-11T17:42:55.425Z,4.53
2018-06-11T17:45:27.382Z,4.03
2018-06-11T17:47:58.964Z,3.80
2018-06-11T17:50:31.265Z,4.07
2018-06-11T17:53:02.932Z,4.27
2018-06-11T17:55:34.733Z,4.10
2018-06-11T17:58:06.475Z,4.30
2018-06-11T18:00:38.170Z,4.33
2018-06-11T18:03:09.685Z,3.40
2018-06-11T18:05:41.374Z,4.03
2018-06-11T18:08:12.925Z,3.97
2018-06-11T18:10:44.746Z,3.80
2018-06-11T18:13:16.335Z,3.37
2018-06-11T18:15:48.054Z,3.30
2018-06-11T18:18:20.428Z,3.50
2018-06-11T18:20:52.257Z,3.87
2018-06-11T18:23:23.986Z,4.10
2018-06-11T18:25:55.593Z,4.17
2018-06-11T18:28:27.657Z,3.93
2018-06-11T18:30:59.409Z,4.03
2018-06-11T18:33:30.898Z,3.57
2018-06-11T18:36:02.630Z,3.77
2018-06-11T18:38:34.466Z,3.30
2018-06-11T18:41:06.241Z,3.83
2018-06-11T18:43:37.811Z,3.83
2018-06-11T18:46:09.486Z,4.17
2018-06-11T18:48:41.111Z,4.50
2018-06-11T18:51:12.836Z,4.00
2018-06-11T18:53:44.519Z,3.40
2018-06-11T18:56:16.235Z,3.43
2018-06-11T18:58:48.147Z,4.10
2018-06-11T19:01:19.755Z,3.90
2018-06-11T19:03:51.412Z,3.77
2018-06-11T19:06:22.681Z,3.60
2018-06-11T19:08:54.100Z,3.97
2018-06-11T19:11:25.745Z,3.63
2018-06-11T19:13:57.639Z,4.10
2018-06-11T19:16:29.236Z,4.30
2018-06-11T19:19:01.189Z,3.90
2018-06-11T19:21:32.967Z,4.07
2018-06-11T19:24:04.946Z,4.20
2018-06-11T19:26:37.710Z,3.90
2018-06-11T19:29:09.694Z,4.47
2018-06-11T19:31:41.522Z,3.93
2018-06-11T19:34:13.416Z,4.30
2018-06-11T19:36:45.763Z,4.00
2018-06-11T19:39:17.574Z,3.70
2018-06-11T19:41:49.409Z,3.90
2018-06-11T19:44:20.970Z,3.50
2018-06-11T19:46:52.506Z,4.00
2018-06-11T19:49:24.339Z,3.67
2018-06-11T19:51:55.958Z,3.63
2018-06-11T19:54:27.880Z,4.50
2018-06-11T19:56:59.482Z,3.80
2018-06-11T19:59:31.021Z,4.37
2018-06-11T20:02:02.586Z,3.67
2018-06-11T20:04:33.733Z,3.87
2018-06-11T20:07:05.319Z,3.77
2018-06-11T20:09:37.001Z,3.77
2018-06-11T20:12:08.867Z,3.77
2018-06-11T20:14:40.612Z,4.10
2018-06-11T20:17:12.287Z,4.57
2018-06-11T20:19:46.901Z,4.20
2018-06-11T20:22:21.721Z,4.30
2018-06-11T20:24:53.919Z,4.07
2018-06-11T20:27:25.497Z,4.30
2018-06-11T20:29:57.578Z,4.30
2018-06-11T20:32:29.144Z,4.10
2018-06-11T20:35:00.883Z,4.13
2018-06-11T20:37:32.594Z,4.27
2018-06-11T20:40:05.146Z,4.33
2018-06-11T20:42:36.685Z,4.37
2018-06-11T20:45:08.707Z,4.13
2018-06-11T20:47:40.211Z,3.83
2018-06-11T20:50:11.737Z,4.23
2018-06-11T20:52:43.403Z,4.00
2018-06-11T20:55:14.950Z,4.17
2018-06-11T20:57:46.504Z,3.80
2018-06-11T21:00:19.597Z,4.00
2018-06-11T21:02:51.144Z,3.67
2018-06-11T21:05:22.840Z,3.90
2018-06-11T21:07:54.515Z,3.40
2018-06-11T21:10:26.778Z,3.90
2018-06-11T21:12:58.441Z,3.43
2018-06-11T21:15:30.122Z,3.60
2018-06-11T21:18:01.861Z,3.80
2018-06-11T21:20:33.582Z,3.13
2018-06-11T21:23:05.603Z,3.73
2018-06-11T21:25:37.247Z,3.63
2018-06-11T21:28:09.415Z,4.07
2018-06-11T21:30:40.966Z,4.17
2018-06-11T21:33:12.472Z,3.87
2018-06-11T21:35:44.056Z,3.90
2018-06-11T21:38:15.944Z,4.07
2018-06-11T21:40:47.540Z,4.80
2018-06-11T21:43:22.079Z,4.00
2018-06-11T21:45:53.726Z,4.57
2018-06-11T21:48:25.620Z,4.40
2018-06-11T21:50:57.621Z,4.17
2018-06-11T21:53:29.410Z,3.87
2018-06-11T21:56:00.997Z,4.27
2018-06-11T21:58:32.497Z,4.27
2018-06-11T22:01:04.204Z,4.47
2018-06-11T22:03:35.819Z,4.40
2018-06-11T22:06:07.945Z,5.17
2018-06-11T22:08:39.548Z,5.20
2018-06-11T22:11:11.079Z,4.80
2018-06-11T22:13:43.947Z,4.67
2018-06-11T22:16:15.497Z,5.10
2018-06-11T22:18:47.431Z,5.33
2018-06-11T22:21:19.295Z,5.20
2018-06-11T22:23:50.859Z,5.23
2018-06-11T22:26:22.620Z,4.87
2018-06-11T22:28:54.234Z,5.23
2018-06-11T22:31:26.025Z,5.60
2018-06-11T22:33:58.190Z,5.70
2018-06-11T22:36:29.910Z,5.27
2018-06-11T22:39:01.807Z,5.40
2018-06-11T22:41:33.455Z,5.30
2018-06-11T22:44:05.472Z,5.33
2018-06-11T22:46:36.929Z,5.13
2018-06-11T22:49:08.449Z,5.23
2018-06-11T22:51:40.230Z,5.37
2018-06-11T22:54:11.701Z,5.03
2018-06-11T22:56:46.294Z,4.93
2018-06-11T22:59:17.976Z,5.13
2018-06-11T23:01:49.341Z,5.20
2018-06-11T23:04:20.991Z,5.40
2018-06-11T23:06:52.549Z,5.20
2018-06-11T23:09:24.163Z,5.27
2018-06-11T23:11:55.708Z,5.10
2018-06-11T23:14:27.304Z,5.53
2018-06-11T23:16:58.807Z,5.40
2018-06-11T23:19:29.936Z,5.87
2018-06-11T23:22:01.738Z,5.47
2018-06-11T23:24:33.417Z,5.83
2018-06-11T23:27:05.297Z,5.33
2018-06-11T23:29:37.432Z,5.33
2018-06-11T23:32:09.079Z,5.90
2018-06-11T23:34:40.829Z,5.43
2018-06-11T23:37:12.401Z,5.83
2018-06-11T23:39:44.126Z,5.63
2018-06-11T23:42:16.022Z,5.77
2018-06-11T23:44:47.514Z,6.10
2018-06-11T23:47:19.017Z,5.57
2018-06-11T23:49:50.519Z,5.73
2018-06-11T23:52:22.031Z,4.93
2018-06-11T23:54:53.601Z,5.80
2018-06-11T23:57:25.458Z,5.60
2018-06-11T23:59:57.192Z,5.87
